METAR Data
IDs: Format: Raw Decoded Include TAF

Data at: 0245 UTC 24 Oct 2019

METAR for:KMXO (Monticello Rgnl, IA, US)
Text:KMXO 240235Z AUTO 35010KT 10SM FEW011 OVC033 05/05 A3003 RMK AO2
Temperature: 5.0°C ( 41°F)
Dewpoint: 5.0°C ( 41°F) [RH = 100%]
Pressure (altimeter):30.03 inches Hg (1017.0 mb)
Winds:from the N (350 degrees) at 12 MPH (10 knots; 5.1 m/s)
Visibility:10 or more sm (16+ km)
Ceiling:3300 feet AGL
Clouds: few clouds at 1100 feet AGL, overcast cloud deck at 3300 feet AGL
QC Flag:automated observation with no human augmentation